createdAt,value
2018-04-17T00:00:06.488Z,13.12
2018-04-17T00:02:38.999Z,13.10
2018-04-17T00:05:11.528Z,13.00
2018-04-17T00:07:44.111Z,12.84
2018-04-17T00:10:16.630Z,12.62
2018-04-17T00:12:49.123Z,12.70
2018-04-17T00:15:21.637Z,12.75
2018-04-17T00:17:54.128Z,12.77
2018-04-17T00:20:26.643Z,12.74
2018-04-17T00:22:59.137Z,12.54
2018-04-17T00:25:31.703Z,12.58
2018-04-17T00:28:04.198Z,12.59
2018-04-17T00:30:36.707Z,12.63
2018-04-17T00:33:09.255Z,12.66
2018-04-17T00:35:41.841Z,12.61
2018-04-17T00:38:14.332Z,12.56
2018-04-17T00:40:46.856Z,12.54
2018-04-17T00:43:19.352Z,12.52
2018-04-17T00:45:51.879Z,12.45
2018-04-17T00:48:24.370Z,12.43
2018-04-17T00:50:56.905Z,12.27
2018-04-17T00:53:41.205Z,12.25
2018-04-17T00:56:13.806Z,12.26
2018-04-17T00:58:46.299Z,12.24
2018-04-17T01:01:18.823Z,12.14
2018-04-17T01:03:51.378Z,12.03
2018-04-17T01:06:24.935Z,11.96
2018-04-17T01:08:57.436Z,11.82
2018-04-17T01:11:30.683Z,11.82
2018-04-17T01:14:03.172Z,11.74
2018-04-17T01:16:35.763Z,11.66
2018-04-17T01:19:08.336Z,11.55
2018-04-17T01:21:40.866Z,11.50
2018-04-17T01:24:13.371Z,11.41
2018-04-17T01:26:45.890Z,11.33
2018-04-17T01:29:18.444Z,11.29
2018-04-17T01:31:50.955Z,11.28
2018-04-17T01:34:23.447Z,11.30
2018-04-17T01:36:55.961Z,11.28
2018-04-17T01:39:28.468Z,11.28
2018-04-17T01:42:00.997Z,11.30
2018-04-17T01:44:33.586Z,11.34
2018-04-17T01:47:06.107Z,11.19
2018-04-17T01:49:38.602Z,11.16
2018-04-17T01:52:11.112Z,11.14
2018-04-17T01:54:43.599Z,11.12
2018-04-17T01:57:16.203Z,11.06
2018-04-17T01:59:48.710Z,11.03
2018-04-17T02:02:21.271Z,11.00
2018-04-17T02:04:53.769Z,10.93
2018-04-17T02:07:26.278Z,10.88
2018-04-17T02:09:58.843Z,10.84
2018-04-17T02:12:31.376Z,10.80
2018-04-17T02:15:03.878Z,10.73
2018-04-17T02:17:36.476Z,10.67
2018-04-17T02:20:09.063Z,10.63
2018-04-17T02:22:41.572Z,10.57
2018-04-17T02:25:14.064Z,10.52
2018-04-17T02:27:46.571Z,10.48
2018-04-17T02:30:19.084Z,10.43
2018-04-17T02:32:51.691Z,10.39
2018-04-17T02:35:24.188Z,10.33
2018-04-17T02:37:56.708Z,10.25
2018-04-17T02:40:29.243Z,10.32
2018-04-17T02:43:02.672Z,10.31
2018-04-17T02:45:35.238Z,10.22
2018-04-17T02:48:07.747Z,10.21
2018-04-17T02:50:40.276Z,10.15
2018-04-17T02:53:12.787Z,10.08
2018-04-17T02:55:45.286Z,10.14
2018-04-17T02:58:17.808Z,10.15
2018-04-17T03:00:50.334Z,10.15
2018-04-17T03:03:22.926Z,10.09
2018-04-17T03:05:55.451Z,10.00
2018-04-17T03:08:27.951Z,9.94
2018-04-17T03:11:00.455Z,9.94
2018-04-17T03:13:32.946Z,9.92
2018-04-17T03:16:05.462Z,9.88
2018-04-17T03:18:37.970Z,9.82
2018-04-17T03:21:10.483Z,9.77
2018-04-17T03:23:42.970Z,9.75
2018-04-17T03:26:16.394Z,9.72
2018-04-17T03:28:48.887Z,9.64
2018-04-17T03:31:21.402Z,9.70
2018-04-17T03:33:53.894Z,9.78
2018-04-17T03:36:26.439Z,9.77
2018-04-17T03:38:58.930Z,9.81
2018-04-17T03:41:31.442Z,9.77
2018-04-17T03:44:03.924Z,9.73
2018-04-17T03:46:36.475Z,9.73
2018-04-17T03:49:08.963Z,9.69
2018-04-17T03:51:41.538Z,9.62
2018-04-17T03:54:14.028Z,9.52
2018-04-17T03:56:46.540Z,9.29
2018-04-17T03:59:19.099Z,9.27
2018-04-17T04:01:51.687Z,9.14
2018-04-17T04:04:24.179Z,9.19
2018-04-17T04:06:56.759Z,9.25
2018-04-17T04:09:29.250Z,9.14
2018-04-17T04:12:01.832Z,9.19
2018-04-17T04:14:34.429Z,9.13
2018-04-17T04:17:18.983Z,9.16
2018-04-17T04:20:03.452Z,9.04
2018-04-17T04:22:48.014Z,9.17
2018-04-17T04:25:43.368Z,9.13
2018-04-17T04:28:15.873Z,9.21
2018-04-17T04:30:48.403Z,9.33
2018-04-17T04:33:20.991Z,9.29
2018-04-17T04:35:53.479Z,9.35
2018-04-17T04:38:26.055Z,9.47
2018-04-17T04:40:58.551Z,9.51
2018-04-17T04:43:31.055Z,9.47
2018-04-17T04:46:03.628Z,9.35
2018-04-17T04:48:36.138Z,9.43
2018-04-17T04:51:08.632Z,9.37
2018-04-17T04:53:41.143Z,9.42
2018-04-17T04:56:13.631Z,9.42
2018-04-17T04:58:46.139Z,9.54
2018-04-17T05:01:18.628Z,9.64
2018-04-17T05:03:51.132Z,9.56
2018-04-17T05:06:23.630Z,9.43
2018-04-17T05:08:56.220Z,9.44
2018-04-17T05:11:28.726Z,9.71
2018-04-17T05:14:01.547Z,10.12
2018-04-17T05:16:34.040Z,10.22
2018-04-17T05:19:06.625Z,10.26
2018-04-17T05:21:39.132Z,10.70
2018-04-17T05:24:11.668Z,11.75
2018-04-17T05:26:44.186Z,13.03
2018-04-17T05:29:16.722Z,13.93
2018-04-17T05:31:49.867Z,14.22
2018-04-17T05:34:22.452Z,14.35
2018-04-17T05:36:55.046Z,15.93
2018-04-17T05:39:27.571Z,16.38
2018-04-17T05:42:00.092Z,15.38
2018-04-17T05:44:32.619Z,15.07
2018-04-17T05:47:05.118Z,14.10
2018-04-17T05:49:37.656Z,13.41
2018-04-17T05:52:10.158Z,14.17
2018-04-17T05:54:42.687Z,15.55
2018-04-17T05:57:15.181Z,15.52
2018-04-17T05:59:47.692Z,14.89
2018-04-17T06:02:20.281Z,14.30
2018-04-17T06:04:52.786Z,14.06
2018-04-17T06:07:25.286Z,13.79
2018-04-17T06:09:57.830Z,13.83
2018-04-17T06:12:30.345Z,13.76
2018-04-17T06:15:02.836Z,12.96
2018-04-17T06:17:35.357Z,12.81
2018-04-17T06:20:07.847Z,14.32
2018-04-17T06:22:40.355Z,13.97
2018-04-17T06:25:12.855Z,14.24
2018-04-17T06:27:45.428Z,13.83
2018-04-17T06:30:17.928Z,13.66
2018-04-17T06:32:50.500Z,13.71
2018-04-17T06:35:23.000Z,14.11
2018-04-17T06:37:55.522Z,13.79
2018-04-17T06:40:28.056Z,13.79
2018-04-17T06:43:00.578Z,13.94
2018-04-17T06:45:33.091Z,13.78
2018-04-17T06:48:05.608Z,13.88
2018-04-17T06:50:38.109Z,14.04
2018-04-17T06:53:10.623Z,14.06
2018-04-17T06:55:43.119Z,14.39
2018-04-17T06:58:15.655Z,14.33
2018-04-17T07:00:48.146Z,14.58
2018-04-17T07:03:20.705Z,15.02
2018-04-17T07:05:53.203Z,15.17
2018-04-17T07:08:25.799Z,15.38
2018-04-17T07:10:58.372Z,15.46
2018-04-17T07:13:30.973Z,15.56
2018-04-17T07:16:03.558Z,15.23
2018-04-17T07:18:36.067Z,15.27
2018-04-17T07:21:08.557Z,15.38
2018-04-17T07:23:41.104Z,15.09
2018-04-17T07:26:13.598Z,15.27
2018-04-17T07:28:46.143Z,15.70
2018-04-17T07:31:18.636Z,15.74
2018-04-17T07:33:51.148Z,15.84
2018-04-17T07:36:23.642Z,16.19
2018-04-17T07:38:56.159Z,16.59
2018-04-17T07:41:28.654Z,16.70
2018-04-17T07:44:01.175Z,16.99
2018-04-17T07:46:33.694Z,17.13
2018-04-17T07:49:07.084Z,17.01
2018-04-17T07:51:39.687Z,16.94
2018-04-17T07:54:12.424Z,17.21
2018-04-17T07:56:44.927Z,16.96
2018-04-17T07:59:17.448Z,17.16
2018-04-17T08:01:50.016Z,17.39
2018-04-17T08:04:22.637Z,17.68
2018-04-17T08:06:55.151Z,18.03
2018-04-17T08:09:27.673Z,18.33
2018-04-17T08:12:00.804Z,18.47
2018-04-17T08:14:33.328Z,18.40
2018-04-17T08:17:05.820Z,18.32
2018-04-17T08:19:38.339Z,18.16
2018-04-17T08:22:10.842Z,18.34
2018-04-17T08:24:43.362Z,18.07
2018-04-17T08:27:15.898Z,18.52
2018-04-17T08:29:48.475Z,18.56
2018-04-17T08:32:21.066Z,18.76
2018-04-17T08:34:53.646Z,18.50
2018-04-17T08:37:26.139Z,18.82
2018-04-17T08:39:58.717Z,18.94
2018-04-17T08:42:31.922Z,19.02
2018-04-17T08:45:04.431Z,18.75
2018-04-17T08:47:36.922Z,18.78
2018-04-17T08:50:09.444Z,18.93
2018-04-17T08:52:41.962Z,18.89
2018-04-17T08:55:14.479Z,18.43
2018-04-17T08:57:47.030Z,18.82
2018-04-17T09:00:19.548Z,18.81
2018-04-17T09:02:52.046Z,18.77
2018-04-17T09:05:24.559Z,18.85
2018-04-17T09:07:57.058Z,18.49
2018-04-17T09:10:29.724Z,18.45
2018-04-17T09:13:02.515Z,19.02
2018-04-17T09:15:35.048Z,19.22
2018-04-17T09:18:07.614Z,19.23
2018-04-17T09:20:40.135Z,19.19
2018-04-17T09:23:12.636Z,19.56
2018-04-17T09:25:45.163Z,19.86
2018-04-17T09:28:17.656Z,19.70
2018-04-17T09:30:50.175Z,19.91
2018-04-17T09:33:22.699Z,19.92
2018-04-17T09:35:55.219Z,19.91
2018-04-17T09:38:27.804Z,19.76
2018-04-17T09:41:01.159Z,20.06
2018-04-17T09:43:33.663Z,19.69
2018-04-17T09:46:06.179Z,19.22
2018-04-17T09:48:38.672Z,18.86
2018-04-17T09:51:11.187Z,18.53
2018-04-17T09:53:43.681Z,18.46
2018-04-17T09:56:16.195Z,18.15
2018-04-17T09:58:48.696Z,18.32
2018-04-17T10:01:22.099Z,18.27
2018-04-17T10:03:54.582Z,18.17
2018-04-17T10:06:27.104Z,18.60
2018-04-17T10:09:00.401Z,19.26
2018-04-17T10:11:32.795Z,19.31
2018-04-17T10:14:05.299Z,19.20
2018-04-17T10:16:37.830Z,18.95
2018-04-17T10:19:10.403Z,19.68
2018-04-17T10:21:42.916Z,20.14
2018-04-17T10:24:15.463Z,19.71
2018-04-17T10:26:47.981Z,19.76
2018-04-17T10:29:20.491Z,20.18
2018-04-17T10:31:52.978Z,20.25
2018-04-17T10:34:25.500Z,20.60
2018-04-17T10:36:58.083Z,20.41
2018-04-17T10:39:30.932Z,20.50
2018-04-17T10:42:03.422Z,20.08
2018-04-17T10:44:35.961Z,19.92
2018-04-17T10:47:08.464Z,19.92
2018-04-17T10:49:41.023Z,20.13
2018-04-17T10:52:13.611Z,20.33
2018-04-17T10:54:46.131Z,20.75
2018-04-17T10:57:18.629Z,20.87
2018-04-17T10:59:51.164Z,20.73
2018-04-17T11:02:23.662Z,20.55
2018-04-17T11:04:56.180Z,20.28
2018-04-17T11:07:28.678Z,20.70
2018-04-17T11:10:01.880Z,20.88
2018-04-17T11:12:34.370Z,21.27
2018-04-17T11:15:06.893Z,21.36
2018-04-17T11:17:39.388Z,21.44
2018-04-17T11:20:11.963Z,21.08
2018-04-17T11:22:44.458Z,21.15
2018-04-17T11:25:16.967Z,21.50
2018-04-17T11:27:49.507Z,21.21
2018-04-17T11:30:22.096Z,21.20
2018-04-17T11:32:54.598Z,21.37
2018-04-17T11:35:27.119Z,21.23
2018-04-17T11:37:59.904Z,21.57
2018-04-17T11:40:32.423Z,21.67
2018-04-17T11:43:04.917Z,21.77
2018-04-17T11:45:37.454Z,21.84
2018-04-17T11:48:10.063Z,21.47
2018-04-17T11:50:42.574Z,21.15
2018-04-17T11:53:15.061Z,21.33
2018-04-17T11:55:47.576Z,21.76
2018-04-17T11:58:20.071Z,21.76
2018-04-17T12:00:52.588Z,21.95
2018-04-17T12:03:25.083Z,22.09
2018-04-17T12:05:57.612Z,22.19
2018-04-17T12:08:30.238Z,22.37
2018-04-17T12:11:02.763Z,22.36
2018-04-17T12:13:35.280Z,22.16
2018-04-17T12:16:07.829Z,22.14
2018-04-17T12:18:40.334Z,22.35
2018-04-17T12:21:12.848Z,22.63
2018-04-17T12:23:45.342Z,22.90
2018-04-17T12:26:17.863Z,23.24
2018-04-17T12:28:50.351Z,23.50
2018-04-17T12:31:22.902Z,23.31
2018-04-17T12:33:55.400Z,23.37
2018-04-17T12:36:27.911Z,24.48
2018-04-17T12:39:00.970Z,26.94
2018-04-17T12:41:33.488Z,27.54
2018-04-17T12:44:06.079Z,29.23
2018-04-17T12:46:38.601Z,29.77
2018-04-17T12:49:11.091Z,29.66
2018-04-17T12:51:43.625Z,28.75
2018-04-17T12:54:16.124Z,27.99
2018-04-17T12:56:48.709Z,25.96
2018-04-17T12:59:21.196Z,27.21
2018-04-17T13:01:53.717Z,28.46
2018-04-17T13:04:26.255Z,30.34
2018-04-17T13:06:58.767Z,30.87
2018-04-17T13:09:32.236Z,28.06
2018-04-17T13:12:04.827Z,25.02
2018-04-17T13:14:37.420Z,26.00
2018-04-17T13:17:10.011Z,26.61
2018-04-17T13:19:42.588Z,26.14
2018-04-17T13:22:16.890Z,27.29
2018-04-17T13:24:49.393Z,29.31
2018-04-17T13:27:21.911Z,29.64
2018-04-17T13:29:54.470Z,29.30
2018-04-17T13:32:27.055Z,28.61
2018-04-17T13:34:59.819Z,28.02
2018-04-17T13:37:32.436Z,29.42
2018-04-17T13:40:05.029Z,28.38
2018-04-17T13:42:37.552Z,28.45
2018-04-17T13:45:10.099Z,27.95
2018-04-17T13:47:42.604Z,27.45
2018-04-17T13:50:15.159Z,27.10
2018-04-17T13:52:47.661Z,27.13
2018-04-17T13:55:20.185Z,26.24
2018-04-17T13:57:52.680Z,25.88
2018-04-17T14:00:25.193Z,25.69
2018-04-17T14:02:57.776Z,26.22
2018-04-17T14:05:30.941Z,25.96
2018-04-17T14:08:03.480Z,24.55
2018-04-17T14:10:36.032Z,24.51
2018-04-17T14:13:08.632Z,24.92
2018-04-17T14:15:41.151Z,23.95
2018-04-17T14:18:13.649Z,24.20
2018-04-17T14:20:46.171Z,24.08
2018-04-17T14:23:18.671Z,23.83
2018-04-17T14:25:51.196Z,23.54
2018-04-17T14:28:23.691Z,23.80
2018-04-17T14:30:56.235Z,23.71
2018-04-17T14:33:28.765Z,22.87
2018-04-17T14:36:02.118Z,22.66
2018-04-17T14:38:34.611Z,22.86
2018-04-17T14:41:07.171Z,22.63
2018-04-17T14:43:39.727Z,22.67
2018-04-17T14:46:12.488Z,22.37
2018-04-17T14:48:45.000Z,22.10
2018-04-17T14:51:17.520Z,22.49
2018-04-17T14:53:50.015Z,22.52
2018-04-17T14:56:22.525Z,22.82
2018-04-17T14:58:55.100Z,22.67
2018-04-17T15:01:27.670Z,22.66
2018-04-17T15:04:00.220Z,22.61
2018-04-17T15:06:32.745Z,22.49
2018-04-17T15:09:07.194Z,22.24
2018-04-17T15:11:39.774Z,22.68
2018-04-17T15:14:12.269Z,23.10
2018-04-17T15:16:44.793Z,23.23
2018-04-17T15:19:17.298Z,23.23
2018-04-17T15:21:50.523Z,22.71
2018-04-17T15:24:23.019Z,22.68
2018-04-17T15:26:55.527Z,22.66
2018-04-17T15:29:28.016Z,22.66
2018-04-17T15:32:00.866Z,22.60
2018-04-17T15:34:33.374Z,22.44
2018-04-17T15:37:05.882Z,22.58
2018-04-17T15:39:38.428Z,22.82
2018-04-17T15:42:11.010Z,22.39
2018-04-17T15:44:43.595Z,22.43
2018-04-17T15:47:16.184Z,22.45
2018-04-17T15:49:48.681Z,22.37
2018-04-17T15:52:21.200Z,22.25
2018-04-17T15:54:53.690Z,22.42
2018-04-17T15:57:26.203Z,22.21
2018-04-17T15:59:58.702Z,21.82
2018-04-17T16:02:31.804Z,21.85
2018-04-17T16:05:04.299Z,21.91
2018-04-17T16:07:36.890Z,22.09
2018-04-17T16:10:09.488Z,22.15
2018-04-17T16:12:42.018Z,22.07
2018-04-17T16:15:14.520Z,22.21
2018-04-17T16:17:47.329Z,22.19
2018-04-17T16:20:20.256Z,21.99
2018-04-17T16:22:52.960Z,21.81
2018-04-17T16:25:25.479Z,21.78
2018-04-17T16:27:58.002Z,21.83
2018-04-17T16:30:30.854Z,21.63
2018-04-17T16:33:03.441Z,21.85
2018-04-17T16:35:36.045Z,21.91
2018-04-17T16:38:08.551Z,21.94
2018-04-17T16:40:41.097Z,21.88
2018-04-17T16:43:13.623Z,21.88
2018-04-17T16:45:46.128Z,21.92
2018-04-17T16:48:18.650Z,21.86
2018-04-17T16:50:51.365Z,21.87
2018-04-17T16:53:24.182Z,21.86
2018-04-17T16:55:56.760Z,21.80
2018-04-17T16:58:30.170Z,21.76
2018-04-17T17:01:02.815Z,21.70
2018-04-17T17:03:35.401Z,21.52
2018-04-17T17:06:07.983Z,21.40
2018-04-17T17:08:40.494Z,21.36
2018-04-17T17:11:13.091Z,21.20
2018-04-17T17:13:45.696Z,21.06
2018-04-17T17:16:18.224Z,20.97
2018-04-17T17:18:50.716Z,20.84
2018-04-17T17:21:23.227Z,20.63
2018-04-17T17:23:55.717Z,20.46
2018-04-17T17:26:28.239Z,20.47
2018-04-17T17:29:00.733Z,20.37
2018-04-17T17:31:33.270Z,20.32
2018-04-17T17:34:05.763Z,20.28
2018-04-17T17:36:38.272Z,20.21
2018-04-17T17:39:10.776Z,19.95
2018-04-17T17:41:43.300Z,19.95
2018-04-17T17:44:15.795Z,19.82
2018-04-17T17:46:48.452Z,19.75
2018-04-17T17:49:20.968Z,19.63
2018-04-17T17:51:53.475Z,19.61
2018-04-17T17:54:25.968Z,19.59
2018-04-17T17:56:58.510Z,19.46
2018-04-17T17:59:31.978Z,19.30
2018-04-17T18:02:04.499Z,19.19
2018-04-17T18:04:37.023Z,19.08
2018-04-17T18:07:09.560Z,19.15
2018-04-17T18:09:42.054Z,18.98
2018-04-17T18:12:15.005Z,18.76
2018-04-17T18:14:47.697Z,18.63
2018-04-17T18:17:20.404Z,18.54
2018-04-17T18:19:55.394Z,18.46
2018-04-17T18:22:27.903Z,18.35
2018-04-17T18:25:01.607Z,18.24
2018-04-17T18:27:34.153Z,18.09
2018-04-17T18:30:06.684Z,18.02
2018-04-17T18:32:39.230Z,17.95
2018-04-17T18:35:11.760Z,17.85
2018-04-17T18:37:44.343Z,17.73
2018-04-17T18:40:16.843Z,17.67
2018-04-17T18:42:49.421Z,17.59
2018-04-17T18:45:21.939Z,17.49
2018-04-17T18:47:54.479Z,17.40
2018-04-17T18:50:27.081Z,17.22
2018-04-17T18:53:00.014Z,17.11
2018-04-17T18:55:32.540Z,17.00
2018-04-17T18:58:05.067Z,16.93
2018-04-17T19:00:37.604Z,16.96
2018-04-17T19:03:10.167Z,16.94
2018-04-17T19:05:42.648Z,16.83
2018-04-17T19:08:15.154Z,16.82
2018-04-17T19:10:47.643Z,16.69
2018-04-17T19:13:20.147Z,16.56
2018-04-17T19:15:52.719Z,16.51
2018-04-17T19:18:25.310Z,16.41
2018-04-17T19:20:58.366Z,16.32
2018-04-17T19:23:30.923Z,16.29
2018-04-17T19:26:03.416Z,16.29
2018-04-17T19:28:35.949Z,16.22
2018-04-17T19:31:08.471Z,16.22
2018-04-17T19:33:40.991Z,16.14
2018-04-17T19:36:13.482Z,16.16
2018-04-17T19:38:45.988Z,16.18
2018-04-17T19:41:18.476Z,16.16
2018-04-17T19:43:50.991Z,16.13
2018-04-17T19:46:23.549Z,16.06
2018-04-17T19:48:56.070Z,15.94
2018-04-17T19:51:28.608Z,15.80
2018-04-17T19:54:01.719Z,15.75
2018-04-17T19:56:38.498Z,15.63
2018-04-17T19:59:11.130Z,15.57
2018-04-17T20:01:43.627Z,15.61
2018-04-17T20:04:16.154Z,15.57
2018-04-17T20:06:48.697Z,15.52
2018-04-17T20:09:21.291Z,15.38
2018-04-17T20:11:53.799Z,15.31
2018-04-17T20:14:26.325Z,15.29
2018-04-17T20:16:58.875Z,15.28
2018-04-17T20:19:32.546Z,15.23
2018-04-17T20:22:05.073Z,15.31
2018-04-17T20:24:37.643Z,15.22
2018-04-17T20:27:10.247Z,15.17
2018-04-17T20:29:42.766Z,14.99
2018-04-17T20:32:15.258Z,15.01
2018-04-17T20:34:47.788Z,14.76
2018-04-17T20:37:20.270Z,14.68
2018-04-17T20:39:52.777Z,14.73
2018-04-17T20:42:25.272Z,14.49
2018-04-17T20:44:57.788Z,14.74
2018-04-17T20:47:30.659Z,14.79
2018-04-17T20:50:03.170Z,14.78
2018-04-17T20:52:35.691Z,14.77
2018-04-17T20:55:08.205Z,14.74
2018-04-17T20:57:40.694Z,14.75
2018-04-17T21:00:13.209Z,14.66
2018-04-17T21:02:45.729Z,14.66
2018-04-17T21:05:18.240Z,14.68
2018-04-17T21:07:50.732Z,14.66
2018-04-17T21:10:23.243Z,14.56
2018-04-17T21:12:55.770Z,14.55
2018-04-17T21:15:28.444Z,14.52
2018-04-17T21:18:00.934Z,14.48
2018-04-17T21:20:33.447Z,14.42
2018-04-17T21:23:05.947Z,14.35
2018-04-17T21:25:38.482Z,14.31
2018-04-17T21:28:11.075Z,14.27
2018-04-17T21:30:43.650Z,14.19
2018-04-17T21:33:16.135Z,14.24
2018-04-17T21:35:48.654Z,14.25
2018-04-17T21:38:21.150Z,14.27
2018-04-17T21:40:53.685Z,14.23
2018-04-17T21:43:26.179Z,14.01
2018-04-17T21:45:58.760Z,13.92
2018-04-17T21:48:31.847Z,13.85
2018-04-17T21:51:04.362Z,13.70
2018-04-17T21:53:36.862Z,13.72
2018-04-17T21:56:09.517Z,13.71
2018-04-17T21:58:42.023Z,13.68
2018-04-17T22:01:14.578Z,13.57
2018-04-17T22:03:47.162Z,13.55
2018-04-17T22:06:19.683Z,13.60
2018-04-17T22:08:52.176Z,13.50
2018-04-17T22:11:24.697Z,13.41
2018-04-17T22:13:57.191Z,13.44
2018-04-17T22:16:29.784Z,13.33
2018-04-17T22:19:02.294Z,13.31
2018-04-17T22:21:34.807Z,13.26
2018-04-17T22:24:07.305Z,13.33
2018-04-17T22:26:39.832Z,13.24
2018-04-17T22:29:12.409Z,13.34
2018-04-17T22:31:44.996Z,13.45
2018-04-17T22:34:17.623Z,13.40
2018-04-17T22:36:50.201Z,13.30
2018-04-17T22:39:22.731Z,13.29
2018-04-17T22:41:55.304Z,13.29
2018-04-17T22:44:27.831Z,13.25
2018-04-17T22:47:01.257Z,13.23
2018-04-17T22:49:33.804Z,13.23
2018-04-17T22:52:06.337Z,13.21
2018-04-17T22:54:38.853Z,13.19
2018-04-17T22:57:11.365Z,13.19
2018-04-17T22:59:43.853Z,13.13
2018-04-17T23:02:16.361Z,13.05
2018-04-17T23:04:48.935Z,13.02
2018-04-17T23:07:21.523Z,12.95
2018-04-17T23:09:54.018Z,12.90
2018-04-17T23:12:26.535Z,12.90
2018-04-17T23:14:59.033Z,12.94
2018-04-17T23:17:32.267Z,12.93
2018-04-17T23:20:04.812Z,12.88
2018-04-17T23:22:37.332Z,12.84
2018-04-17T23:25:10.042Z,12.79
2018-04-17T23:27:42.555Z,12.69
2018-04-17T23:30:15.106Z,12.66
2018-04-17T23:32:47.705Z,12.58
2018-04-17T23:35:20.224Z,12.61
2018-04-17T23:37:52.744Z,12.55
2018-04-17T23:40:25.240Z,12.49
2018-04-17T23:42:57.751Z,12.50
2018-04-17T23:45:30.695Z,12.56
2018-04-17T23:48:03.215Z,12.49
2018-04-17T23:50:35.712Z,12.47
2018-04-17T23:53:08.286Z,12.46
2018-04-17T23:55:40.788Z,12.48
2018-04-17T23:58:13.288Z,12.44
